sensor_id;sensor_type;location;lat;lon;timestamp;P1;durP1;ratioP1;P2;durP2;ratioP2
43160;SDS011;40968;52.342;5.528;2023-06-10T00:01:37;11.25;;;3.85;;
43160;SDS011;40968;52.342;5.528;2023-06-10T00:04:04;11.93;;;4.47;;
43160;SDS011;40968;52.342;5.528;2023-06-10T00:06:31;13.57;;;3.97;;
43160;SDS011;40968;52.342;5.528;2023-06-10T00:09:03;10.77;;;4.00;;
43160;SDS011;40968;52.342;5.528;2023-06-10T00:11:31;19.73;;;3.73;;
43160;SDS011;40968;52.342;5.528;2023-06-10T00:13:58;15.65;;;3.97;;
43160;SDS011;40968;52.342;5.528;2023-06-10T00:16:24;14.25;;;4.18;;
43160;SDS011;40968;52.342;5.528;2023-06-10T00:18:51;10.52;;;3.45;;
43160;SDS011;40968;52.342;5.528;2023-06-10T00:21:20;14.88;;;4.25;;
43160;SDS011;40968;52.342;5.528;2023-06-10T00:23:49;13.57;;;4.53;;
43160;SDS011;40968;52.342;5.528;2023-06-10T00:26:17;9.20;;;3.88;;
43160;SDS011;40968;52.342;5.528;2023-06-10T00:28:44;10.98;;;4.15;;
43160;SDS011;40968;52.342;5.528;2023-06-10T00:31:11;13.23;;;3.58;;
43160;SDS011;40968;52.342;5.528;2023-06-10T00:33:38;11.90;;;3.80;;
43160;SDS011;40968;52.342;5.528;2023-06-10T00:36:05;10.07;;;3.78;;
43160;SDS011;40968;52.342;5.528;2023-06-10T00:38:31;12.13;;;4.18;;
43160;SDS011;40968;52.342;5.528;2023-06-10T00:40:58;11.07;;;3.72;;
43160;SDS011;40968;52.342;5.528;2023-06-10T00:43:26;14.82;;;3.95;;
43160;SDS011;40968;52.342;5.528;2023-06-10T00:45:53;10.80;;;3.88;;
43160;SDS011;40968;52.342;5.528;2023-06-10T00:48:20;8.93;;;3.60;;
43160;SDS011;40968;52.342;5.528;2023-06-10T00:50:47;14.82;;;4.22;;
43160;SDS011;40968;52.342;5.528;2023-06-10T00:53:14;11.07;;;3.97;;
43160;SDS011;40968;52.342;5.528;2023-06-10T00:55:41;8.95;;;4.07;;
43160;SDS011;40968;52.342;5.528;2023-06-10T00:58:08;11.50;;;3.90;;
43160;SDS011;40968;52.342;5.528;2023-06-10T01:00:36;10.70;;;4.15;;
43160;SDS011;40968;52.342;5.528;2023-06-10T01:03:03;11.63;;;4.00;;
43160;SDS011;40968;52.342;5.528;2023-06-10T01:05:33;11.90;;;4.45;;
43160;SDS011;40968;52.342;5.528;2023-06-10T01:08:03;11.88;;;4.00;;
43160;SDS011;40968;52.342;5.528;2023-06-10T01:10:38;13.00;;;4.40;;
43160;SDS011;40968;52.342;5.528;2023-06-10T01:13:09;8.82;;;4.00;;
43160;SDS011;40968;52.342;5.528;2023-06-10T01:15:39;11.93;;;3.78;;
43160;SDS011;40968;52.342;5.528;2023-06-10T01:18:06;11.02;;;3.88;;
43160;SDS011;40968;52.342;5.528;2023-06-10T01:20:35;18.08;;;4.43;;
43160;SDS011;40968;52.342;5.528;2023-06-10T01:23:06;12.85;;;4.10;;
43160;SDS011;40968;52.342;5.528;2023-06-10T01:25:35;11.05;;;4.50;;
43160;SDS011;40968;52.342;5.528;2023-06-10T01:28:05;14.33;;;4.13;;
43160;SDS011;40968;52.342;5.528;2023-06-10T01:30:39;11.05;;;4.05;;
43160;SDS011;40968;52.342;5.528;2023-06-10T01:33:14;12.93;;;3.90;;
43160;SDS011;40968;52.342;5.528;2023-06-10T01:35:42;14.57;;;4.00;;
43160;SDS011;40968;52.342;5.528;2023-06-10T01:38:11;16.15;;;4.65;;
43160;SDS011;40968;52.342;5.528;2023-06-10T01:40:41;12.98;;;4.18;;
43160;SDS011;40968;52.342;5.528;2023-06-10T01:43:08;11.82;;;4.30;;
43160;SDS011;40968;52.342;5.528;2023-06-10T01:45:35;10.85;;;4.30;;
43160;SDS011;40968;52.342;5.528;2023-06-10T01:48:01;13.70;;;4.15;;
43160;SDS011;40968;52.342;5.528;2023-06-10T01:50:28;17.40;;;4.57;;
43160;SDS011;40968;52.342;5.528;2023-06-10T01:52:56;10.98;;;4.25;;
43160;SDS011;40968;52.342;5.528;2023-06-10T01:55:25;24.05;;;4.90;;
43160;SDS011;40968;52.342;5.528;2023-06-10T01:57:52;11.10;;;4.65;;
43160;SDS011;40968;52.342;5.528;2023-06-10T02:00:19;10.70;;;4.15;;
43160;SDS011;40968;52.342;5.528;2023-06-10T02:02:45;15.45;;;5.13;;
43160;SDS011;40968;52.342;5.528;2023-06-10T02:05:12;13.00;;;4.45;;
43160;SDS011;40968;52.342;5.528;2023-06-10T02:07:39;13.52;;;4.63;;
43160;SDS011;40968;52.342;5.528;2023-06-10T02:10:06;11.93;;;4.78;;
43160;SDS011;40968;52.342;5.528;2023-06-10T02:12:35;15.07;;;4.35;;
43160;SDS011;40968;52.342;5.528;2023-06-10T02:15:01;14.10;;;4.88;;
43160;SDS011;40968;52.342;5.528;2023-06-10T02:17:29;12.75;;;4.50;;
43160;SDS011;40968;52.342;5.528;2023-06-10T02:19:55;11.75;;;4.32;;
43160;SDS011;40968;52.342;5.528;2023-06-10T02:22:23;14.38;;;5.10;;
43160;SDS011;40968;52.342;5.528;2023-06-10T02:24:50;11.60;;;4.40;;
43160;SDS011;40968;52.342;5.528;2023-06-10T02:27:17;9.77;;;4.18;;
43160;SDS011;40968;52.342;5.528;2023-06-10T02:29:46;15.95;;;4.90;;
43160;SDS011;40968;52.342;5.528;2023-06-10T02:32:12;13.07;;;4.35;;
43160;SDS011;40968;52.342;5.528;2023-06-10T02:34:39;14.35;;;4.90;;
43160;SDS011;40968;52.342;5.528;2023-06-10T02:37:07;13.98;;;4.40;;
43160;SDS011;40968;52.342;5.528;2023-06-10T02:39:34;10.85;;;4.38;;
43160;SDS011;40968;52.342;5.528;2023-06-10T02:42:01;14.55;;;4.55;;
43160;SDS011;40968;52.342;5.528;2023-06-10T02:44:27;12.07;;;4.68;;
43160;SDS011;40968;52.342;5.528;2023-06-10T02:46:55;15.15;;;4.90;;
43160;SDS011;40968;52.342;5.528;2023-06-10T02:49:22;12.73;;;5.15;;
43160;SDS011;40968;52.342;5.528;2023-06-10T02:51:49;12.25;;;4.32;;
43160;SDS011;40968;52.342;5.528;2023-06-10T02:54:18;13.32;;;4.60;;
43160;SDS011;40968;52.342;5.528;2023-06-10T02:56:44;14.88;;;4.85;;
43160;SDS011;40968;52.342;5.528;2023-06-10T02:59:13;11.73;;;4.85;;
43160;SDS011;40968;52.342;5.528;2023-06-10T03:01:39;14.70;;;4.72;;
43160;SDS011;40968;52.342;5.528;2023-06-10T03:04:07;9.07;;;4.15;;
43160;SDS011;40968;52.342;5.528;2023-06-10T03:06:35;12.77;;;5.10;;
43160;SDS011;40968;52.342;5.528;2023-06-10T03:09:03;16.50;;;4.28;;
43160;SDS011;40968;52.342;5.528;2023-06-10T03:11:30;14.68;;;4.75;;
43160;SDS011;40968;52.342;5.528;2023-06-10T03:13:57;16.75;;;4.60;;
43160;SDS011;40968;52.342;5.528;2023-06-10T03:16:23;12.40;;;4.63;;
43160;SDS011;40968;52.342;5.528;2023-06-10T03:18:52;12.98;;;5.45;;
43160;SDS011;40968;52.342;5.528;2023-06-10T03:21:20;8.95;;;4.07;;
43160;SDS011;40968;52.342;5.528;2023-06-10T03:23:47;11.70;;;4.40;;
43160;SDS011;40968;52.342;5.528;2023-06-10T03:26:14;16.58;;;4.68;;
43160;SDS011;40968;52.342;5.528;2023-06-10T03:28:41;14.38;;;4.75;;
43160;SDS011;40968;52.342;5.528;2023-06-10T03:31:08;14.40;;;4.57;;
43160;SDS011;40968;52.342;5.528;2023-06-10T03:33:35;13.25;;;4.47;;
43160;SDS011;40968;52.342;5.528;2023-06-10T03:36:02;17.38;;;5.47;;
43160;SDS011;40968;52.342;5.528;2023-06-10T03:38:31;18.63;;;4.72;;
43160;SDS011;40968;52.342;5.528;2023-06-10T03:40:57;18.73;;;4.45;;
43160;SDS011;40968;52.342;5.528;2023-06-10T03:43:24;12.32;;;4.97;;
43160;SDS011;40968;52.342;5.528;2023-06-10T03:45:51;15.20;;;4.82;;
43160;SDS011;40968;52.342;5.528;2023-06-10T03:48:18;10.07;;;4.40;;
43160;SDS011;40968;52.342;5.528;2023-06-10T03:50:44;12.10;;;5.05;;
43160;SDS011;40968;52.342;5.528;2023-06-10T03:53:12;14.05;;;4.50;;
43160;SDS011;40968;52.342;5.528;2023-06-10T03:55:41;13.40;;;4.80;;
43160;SDS011;40968;52.342;5.528;2023-06-10T03:58:07;11.10;;;4.35;;
43160;SDS011;40968;52.342;5.528;2023-06-10T04:00:34;14.68;;;4.45;;
43160;SDS011;40968;52.342;5.528;2023-06-10T04:03:06;16.00;;;5.10;;
43160;SDS011;40968;52.342;5.528;2023-06-10T04:05:34;12.70;;;4.55;;
43160;SDS011;40968;52.342;5.528;2023-06-10T04:08:01;16.33;;;5.32;;
43160;SDS011;40968;52.342;5.528;2023-06-10T04:10:27;14.88;;;5.13;;
43160;SDS011;40968;52.342;5.528;2023-06-10T04:12:55;15.75;;;5.20;;
43160;SDS011;40968;52.342;5.528;2023-06-10T04:15:22;19.52;;;4.97;;
43160;SDS011;40968;52.342;5.528;2023-06-10T04:17:49;8.75;;;4.18;;
43160;SDS011;40968;52.342;5.528;2023-06-10T04:20:16;14.38;;;5.05;;
43160;SDS011;40968;52.342;5.528;2023-06-10T04:22:42;12.77;;;4.68;;
43160;SDS011;40968;52.342;5.528;2023-06-10T04:25:09;13.25;;;5.03;;
43160;SDS011;40968;52.342;5.528;2023-06-10T04:27:36;18.95;;;5.00;;
43160;SDS011;40968;52.342;5.528;2023-06-10T04:30:05;12.15;;;4.85;;
43160;SDS011;40968;52.342;5.528;2023-06-10T04:32:32;10.23;;;4.82;;
43160;SDS011;40968;52.342;5.528;2023-06-10T04:34:59;14.63;;;4.80;;
43160;SDS011;40968;52.342;5.528;2023-06-10T04:37:26;23.50;;;5.82;;
43160;SDS011;40968;52.342;5.528;2023-06-10T04:39:54;19.35;;;5.07;;
43160;SDS011;40968;52.342;5.528;2023-06-10T04:42:21;12.15;;;4.70;;
43160;SDS011;40968;52.342;5.528;2023-06-10T04:44:48;16.42;;;4.68;;
43160;SDS011;40968;52.342;5.528;2023-06-10T04:47:16;14.13;;;5.03;;
43160;SDS011;40968;52.342;5.528;2023-06-10T04:49:42;16.98;;;5.28;;
43160;SDS011;40968;52.342;5.528;2023-06-10T04:52:09;19.92;;;5.43;;
43160;SDS011;40968;52.342;5.528;2023-06-10T04:54:36;26.95;;;7.15;;
43160;SDS011;40968;52.342;5.528;2023-06-10T04:57:03;14.15;;;5.63;;
43160;SDS011;40968;52.342;5.528;2023-06-10T04:59:31;15.45;;;5.22;;
43160;SDS011;40968;52.342;5.528;2023-06-10T05:01:57;16.15;;;5.32;;
43160;SDS011;40968;52.342;5.528;2023-06-10T05:04:25;13.10;;;4.97;;
43160;SDS011;40968;52.342;5.528;2023-06-10T05:06:52;18.70;;;5.20;;
43160;SDS011;40968;52.342;5.528;2023-06-10T05:09:19;12.40;;;5.10;;
43160;SDS011;40968;52.342;5.528;2023-06-10T05:11:46;17.75;;;5.68;;
43160;SDS011;40968;52.342;5.528;2023-06-10T05:14:12;14.25;;;5.55;;
43160;SDS011;40968;52.342;5.528;2023-06-10T05:16:41;13.02;;;5.32;;
43160;SDS011;40968;52.342;5.528;2023-06-10T05:19:08;16.63;;;5.28;;
43160;SDS011;40968;52.342;5.528;2023-06-10T05:21:36;16.13;;;5.28;;
43160;SDS011;40968;52.342;5.528;2023-06-10T05:24:03;15.75;;;5.38;;
43160;SDS011;40968;52.342;5.528;2023-06-10T05:26:30;23.83;;;5.75;;
43160;SDS011;40968;52.342;5.528;2023-06-10T05:28:58;11.60;;;4.88;;
43160;SDS011;40968;52.342;5.528;2023-06-10T05:31:24;18.67;;;5.28;;
43160;SDS011;40968;52.342;5.528;2023-06-10T05:33:51;15.02;;;5.38;;
43160;SDS011;40968;52.342;5.528;2023-06-10T05:36:18;14.60;;;5.03;;
43160;SDS011;40968;52.342;5.528;2023-06-10T05:38:46;14.88;;;5.57;;
43160;SDS011;40968;52.342;5.528;2023-06-10T05:41:12;28.58;;;5.90;;
43160;SDS011;40968;52.342;5.528;2023-06-10T05:43:39;22.27;;;6.10;;
43160;SDS011;40968;52.342;5.528;2023-06-10T05:46:06;14.38;;;5.28;;
43160;SDS011;40968;52.342;5.528;2023-06-10T05:48:32;16.60;;;5.78;;
43160;SDS011;40968;52.342;5.528;2023-06-10T05:50:59;16.70;;;5.85;;
43160;SDS011;40968;52.342;5.528;2023-06-10T05:53:26;18.65;;;5.63;;
43160;SDS011;40968;52.342;5.528;2023-06-10T05:55:56;12.77;;;5.50;;
43160;SDS011;40968;52.342;5.528;2023-06-10T05:58:23;16.95;;;5.32;;
43160;SDS011;40968;52.342;5.528;2023-06-10T06:00:50;14.38;;;5.22;;
43160;SDS011;40968;52.342;5.528;2023-06-10T06:03:17;22.42;;;6.20;;
43160;SDS011;40968;52.342;5.528;2023-06-10T06:05:44;19.30;;;6.05;;
43160;SDS011;40968;52.342;5.528;2023-06-10T06:08:11;22.33;;;5.55;;
43160;SDS011;40968;52.342;5.528;2023-06-10T06:10:38;16.98;;;5.50;;
43160;SDS011;40968;52.342;5.528;2023-06-10T06:13:06;21.50;;;5.78;;
43160;SDS011;40968;52.342;5.528;2023-06-10T06:15:33;15.95;;;5.47;;
43160;SDS011;40968;52.342;5.528;2023-06-10T06:18:00;17.60;;;5.43;;
43160;SDS011;40968;52.342;5.528;2023-06-10T06:20:26;19.80;;;6.00;;
43160;SDS011;40968;52.342;5.528;2023-06-10T06:22:53;10.70;;;5.38;;
43160;SDS011;40968;52.342;5.528;2023-06-10T06:25:20;20.38;;;6.50;;
43160;SDS011;40968;52.342;5.528;2023-06-10T06:27:48;15.82;;;5.20;;
43160;SDS011;40968;52.342;5.528;2023-06-10T06:30:16;17.60;;;5.70;;
43160;SDS011;40968;52.342;5.528;2023-06-10T06:32:43;15.52;;;5.38;;
43160;SDS011;40968;52.342;5.528;2023-06-10T06:35:09;16.27;;;5.13;;
43160;SDS011;40968;52.342;5.528;2023-06-10T06:37:36;15.35;;;5.07;;
43160;SDS011;40968;52.342;5.528;2023-06-10T06:40:03;16.30;;;5.82;;
43160;SDS011;40968;52.342;5.528;2023-06-10T06:42:30;10.20;;;5.40;;
43160;SDS011;40968;52.342;5.528;2023-06-10T06:44:57;29.58;;;5.45;;
43160;SDS011;40968;52.342;5.528;2023-06-10T06:47:25;13.00;;;5.45;;
43160;SDS011;40968;52.342;5.528;2023-06-10T06:49:52;12.70;;;4.82;;
43160;SDS011;40968;52.342;5.528;2023-06-10T06:52:18;15.15;;;5.70;;
43160;SDS011;40968;52.342;5.528;2023-06-10T06:54:45;17.23;;;5.40;;
43160;SDS011;40968;52.342;5.528;2023-06-10T06:57:12;14.63;;;5.07;;
43160;SDS011;40968;52.342;5.528;2023-06-10T06:59:38;11.27;;;4.43;;
43160;SDS011;40968;52.342;5.528;2023-06-10T07:02:05;15.45;;;5.53;;
43160;SDS011;40968;52.342;5.528;2023-06-10T07:04:33;26.75;;;7.15;;
43160;SDS011;40968;52.342;5.528;2023-06-10T07:07:00;14.35;;;5.43;;
43160;SDS011;40968;52.342;5.528;2023-06-10T07:09:27;16.23;;;5.65;;
43160;SDS011;40968;52.342;5.528;2023-06-10T07:11:54;15.40;;;5.43;;
43160;SDS011;40968;52.342;5.528;2023-06-10T07:14:21;18.20;;;5.60;;
43160;SDS011;40968;52.342;5.528;2023-06-10T07:16:47;15.27;;;5.57;;
43160;SDS011;40968;52.342;5.528;2023-06-10T07:19:14;16.95;;;5.10;;
43160;SDS011;40968;52.342;5.528;2023-06-10T07:21:42;12.75;;;5.28;;
43160;SDS011;40968;52.342;5.528;2023-06-10T07:24:09;14.60;;;5.30;;
43160;SDS011;40968;52.342;5.528;2023-06-10T07:26:36;19.05;;;5.97;;
43160;SDS011;40968;52.342;5.528;2023-06-10T07:29:02;23.35;;;5.07;;
43160;SDS011;40968;52.342;5.528;2023-06-10T07:31:29;16.92;;;5.47;;
43160;SDS011;40968;52.342;5.528;2023-06-10T07:33:56;14.50;;;4.75;;
43160;SDS011;40968;52.342;5.528;2023-06-10T07:36:22;13.48;;;5.55;;
43160;SDS011;40968;52.342;5.528;2023-06-10T07:38:53;17.75;;;5.32;;
43160;SDS011;40968;52.342;5.528;2023-06-10T07:41:20;14.90;;;4.65;;
43160;SDS011;40968;52.342;5.528;2023-06-10T07:43:49;13.38;;;5.43;;
43160;SDS011;40968;52.342;5.528;2023-06-10T07:46:19;20.38;;;5.35;;
43160;SDS011;40968;52.342;5.528;2023-06-10T07:48:46;15.15;;;5.55;;
43160;SDS011;40968;52.342;5.528;2023-06-10T07:51:13;13.23;;;5.60;;
43160;SDS011;40968;52.342;5.528;2023-06-10T07:53:40;14.65;;;5.20;;
43160;SDS011;40968;52.342;5.528;2023-06-10T07:56:08;19.98;;;5.70;;
43160;SDS011;40968;52.342;5.528;2023-06-10T07:58:35;15.13;;;5.45;;
43160;SDS011;40968;52.342;5.528;2023-06-10T08:01:02;15.77;;;5.57;;
43160;SDS011;40968;52.342;5.528;2023-06-10T08:03:28;9.35;;;4.25;;
43160;SDS011;40968;52.342;5.528;2023-06-10T08:05:55;13.15;;;4.95;;
43160;SDS011;40968;52.342;5.528;2023-06-10T08:08:22;18.45;;;5.47;;
43160;SDS011;40968;52.342;5.528;2023-06-10T08:10:48;11.18;;;4.70;;
43160;SDS011;40968;52.342;5.528;2023-06-10T08:13:16;13.82;;;4.97;;
43160;SDS011;40968;52.342;5.528;2023-06-10T08:15:43;17.08;;;5.10;;
43160;SDS011;40968;52.342;5.528;2023-06-10T08:18:10;14.95;;;4.72;;
43160;SDS011;40968;52.342;5.528;2023-06-10T08:20:36;15.73;;;5.35;;
43160;SDS011;40968;52.342;5.528;2023-06-10T08:23:03;16.00;;;4.63;;
43160;SDS011;40968;52.342;5.528;2023-06-10T08:25:30;18.70;;;5.05;;
43160;SDS011;40968;52.342;5.528;2023-06-10T08:27:56;13.75;;;5.13;;
43160;SDS011;40968;52.342;5.528;2023-06-10T08:30:24;10.43;;;4.20;;
43160;SDS011;40968;52.342;5.528;2023-06-10T08:32:51;14.68;;;5.53;;
43160;SDS011;40968;52.342;5.528;2023-06-10T08:35:18;10.98;;;4.57;;
43160;SDS011;40968;52.342;5.528;2023-06-10T08:37:45;11.27;;;4.35;;
43160;SDS011;40968;52.342;5.528;2023-06-10T08:40:12;14.30;;;5.15;;
43160;SDS011;40968;52.342;5.528;2023-06-10T08:42:39;11.52;;;4.70;;
43160;SDS011;40968;52.342;5.528;2023-06-10T08:45:11;10.55;;;4.47;;
43160;SDS011;40968;52.342;5.528;2023-06-10T08:47:44;10.63;;;5.05;;
43160;SDS011;40968;52.342;5.528;2023-06-10T08:50:11;15.23;;;4.88;;
43160;SDS011;40968;52.342;5.528;2023-06-10T08:52:41;17.80;;;5.32;;
43160;SDS011;40968;52.342;5.528;2023-06-10T08:55:10;18.67;;;5.22;;
43160;SDS011;40968;52.342;5.528;2023-06-10T08:57:40;17.67;;;4.90;;
43160;SDS011;40968;52.342;5.528;2023-06-10T09:00:08;16.55;;;4.97;;
43160;SDS011;40968;52.342;5.528;2023-06-10T09:02:35;16.90;;;5.03;;
43160;SDS011;40968;52.342;5.528;2023-06-10T09:05:04;16.35;;;4.40;;
43160;SDS011;40968;52.342;5.528;2023-06-10T09:07:31;12.85;;;4.70;;
43160;SDS011;40968;52.342;5.528;2023-06-10T09:10:00;14.50;;;4.63;;
43160;SDS011;40968;52.342;5.528;2023-06-10T09:12:29;14.45;;;4.28;;
43160;SDS011;40968;52.342;5.528;2023-06-10T09:14:55;10.52;;;4.28;;
43160;SDS011;40968;52.342;5.528;2023-06-10T09:17:22;11.02;;;4.70;;
43160;SDS011;40968;52.342;5.528;2023-06-10T09:19:49;12.57;;;5.07;;
43160;SDS011;40968;52.342;5.528;2023-06-10T09:22:19;10.38;;;4.45;;
43160;SDS011;40968;52.342;5.528;2023-06-10T09:24:46;12.35;;;4.88;;
43160;SDS011;40968;52.342;5.528;2023-06-10T09:27:13;14.45;;;4.72;;
43160;SDS011;40968;52.342;5.528;2023-06-10T09:29:46;17.98;;;5.20;;
43160;SDS011;40968;52.342;5.528;2023-06-10T09:32:17;9.55;;;4.32;;
43160;SDS011;40968;52.342;5.528;2023-06-10T09:34:44;12.95;;;4.50;;
43160;SDS011;40968;52.342;5.528;2023-06-10T09:37:12;13.10;;;4.68;;
43160;SDS011;40968;52.342;5.528;2023-06-10T09:39:40;12.15;;;4.32;;
43160;SDS011;40968;52.342;5.528;2023-06-10T09:42:15;9.98;;;4.32;;
43160;SDS011;40968;52.342;5.528;2023-06-10T09:44:48;12.88;;;4.57;;
43160;SDS011;40968;52.342;5.528;2023-06-10T09:47:19;10.50;;;4.45;;
43160;SDS011;40968;52.342;5.528;2023-06-10T09:49:55;10.05;;;4.25;;
43160;SDS011;40968;52.342;5.528;2023-06-10T09:52:22;9.93;;;4.55;;
43160;SDS011;40968;52.342;5.528;2023-06-10T09:54:49;13.27;;;4.60;;
43160;SDS011;40968;52.342;5.528;2023-06-10T09:57:17;11.93;;;4.72;;
43160;SDS011;40968;52.342;5.528;2023-06-10T09:59:44;16.20;;;4.43;;
43160;SDS011;40968;52.342;5.528;2023-06-10T10:02:13;10.25;;;4.05;;
43160;SDS011;40968;52.342;5.528;2023-06-10T10:04:40;10.60;;;4.53;;
43160;SDS011;40968;52.342;5.528;2023-06-10T10:07:08;11.20;;;4.10;;
43160;SDS011;40968;52.342;5.528;2023-06-10T10:09:36;10.98;;;4.38;;
43160;SDS011;40968;52.342;5.528;2023-06-10T10:12:03;11.68;;;4.85;;
43160;SDS011;40968;52.342;5.528;2023-06-10T10:14:35;13.00;;;4.30;;
43160;SDS011;40968;52.342;5.528;2023-06-10T10:17:04;9.30;;;3.65;;
43160;SDS011;40968;52.342;5.528;2023-06-10T10:19:34;10.43;;;3.83;;
43160;SDS011;40968;52.342;5.528;2023-06-10T10:22:07;13.63;;;3.83;;
43160;SDS011;40968;52.342;5.528;2023-06-10T10:27:07;11.60;;;4.18;;
43160;SDS011;40968;52.342;5.528;2023-06-10T10:29:39;11.93;;;4.03;;
43160;SDS011;40968;52.342;5.528;2023-06-10T10:32:08;8.15;;;4.22;;
43160;SDS011;40968;52.342;5.528;2023-06-10T10:34:39;14.43;;;4.47;;
43160;SDS011;40968;52.342;5.528;2023-06-10T10:37:16;11.25;;;4.40;;
43160;SDS011;40968;52.342;5.528;2023-06-10T10:39:44;13.95;;;4.57;;
43160;SDS011;40968;52.342;5.528;2023-06-10T10:42:11;13.00;;;4.18;;
43160;SDS011;40968;52.342;5.528;2023-06-10T10:44:39;7.68;;;3.78;;
43160;SDS011;40968;52.342;5.528;2023-06-10T10:47:07;10.20;;;4.43;;
43160;SDS011;40968;52.342;5.528;2023-06-10T10:49:35;8.82;;;3.80;;
43160;SDS011;40968;52.342;5.528;2023-06-10T10:52:03;11.00;;;4.18;;
43160;SDS011;40968;52.342;5.528;2023-06-10T10:54:33;10.52;;;4.25;;
43160;SDS011;40968;52.342;5.528;2023-06-10T10:57:15;10.65;;;3.67;;
43160;SDS011;40968;52.342;5.528;2023-06-10T10:59:44;9.20;;;4.10;;
43160;SDS011;40968;52.342;5.528;2023-06-10T11:02:15;14.48;;;4.05;;
43160;SDS011;40968;52.342;5.528;2023-06-10T11:04:44;11.18;;;4.20;;
43160;SDS011;40968;52.342;5.528;2023-06-10T11:07:12;9.85;;;3.67;;
43160;SDS011;40968;52.342;5.528;2023-06-10T11:09:41;21.45;;;5.22;;
43160;SDS011;40968;52.342;5.528;2023-06-10T11:12:24;12.32;;;4.10;;
43160;SDS011;40968;52.342;5.528;2023-06-10T11:14:53;10.63;;;4.03;;
43160;SDS011;40968;52.342;5.528;2023-06-10T11:17:21;15.05;;;4.10;;
43160;SDS011;40968;52.342;5.528;2023-06-10T11:19:48;11.80;;;3.80;;
43160;SDS011;40968;52.342;5.528;2023-06-10T11:22:16;11.88;;;3.83;;
43160;SDS011;40968;52.342;5.528;2023-06-10T11:24:48;11.20;;;3.88;;
43160;SDS011;40968;52.342;5.528;2023-06-10T11:27:17;8.45;;;4.10;;
43160;SDS011;40968;52.342;5.528;2023-06-10T11:29:57;13.05;;;4.00;;
43160;SDS011;40968;52.342;5.528;2023-06-10T11:32:25;10.25;;;3.40;;
43160;SDS011;40968;52.342;5.528;2023-06-10T11:34:56;8.10;;;3.53;;
43160;SDS011;40968;52.342;5.528;2023-06-10T11:37:23;11.55;;;4.07;;
43160;SDS011;40968;52.342;5.528;2023-06-10T11:39:52;7.85;;;3.65;;
43160;SDS011;40968;52.342;5.528;2023-06-10T11:42:20;13.33;;;3.70;;
43160;SDS011;40968;52.342;5.528;2023-06-10T11:44:48;11.95;;;3.97;;
43160;SDS011;40968;52.342;5.528;2023-06-10T11:47:15;10.57;;;3.95;;
43160;SDS011;40968;52.342;5.528;2023-06-10T11:49:42;7.78;;;3.83;;
43160;SDS011;40968;52.342;5.528;2023-06-10T11:52:08;11.75;;;4.35;;
43160;SDS011;40968;52.342;5.528;2023-06-10T11:54:35;9.38;;;4.10;;
43160;SDS011;40968;52.342;5.528;2023-06-10T11:57:04;10.60;;;3.78;;
43160;SDS011;40968;52.342;5.528;2023-06-10T11:59:33;10.95;;;3.80;;
43160;SDS011;40968;52.342;5.528;2023-06-10T12:02:00;9.02;;;3.90;;
43160;SDS011;40968;52.342;5.528;2023-06-10T12:04:27;11.10;;;3.83;;
43160;SDS011;40968;52.342;5.528;2023-06-10T12:06:53;10.35;;;3.60;;
43160;SDS011;40968;52.342;5.528;2023-06-10T12:09:21;14.98;;;3.88;;
43160;SDS011;40968;52.342;5.528;2023-06-10T12:11:49;9.90;;;4.18;;
43160;SDS011;40968;52.342;5.528;2023-06-10T12:17:20;16.88;;;3.88;;
43160;SDS011;40968;52.342;5.528;2023-06-10T12:19:48;9.05;;;3.88;;
43160;SDS011;40968;52.342;5.528;2023-06-10T12:22:15;9.27;;;3.47;;
43160;SDS011;40968;52.342;5.528;2023-06-10T12:24:45;12.05;;;4.10;;
43160;SDS011;40968;52.342;5.528;2023-06-10T12:27:13;9.93;;;3.97;;
43160;SDS011;40968;52.342;5.528;2023-06-10T12:29:39;9.68;;;3.90;;
43160;SDS011;40968;52.342;5.528;2023-06-10T12:32:20;7.88;;;3.85;;
43160;SDS011;40968;52.342;5.528;2023-06-10T12:34:50;9.48;;;4.43;;
43160;SDS011;40968;52.342;5.528;2023-06-10T12:37:28;16.52;;;3.80;;
43160;SDS011;40968;52.342;5.528;2023-06-10T12:39:55;9.45;;;3.95;;
43160;SDS011;40968;52.342;5.528;2023-06-10T12:42:23;15.75;;;3.83;;
43160;SDS011;40968;52.342;5.528;2023-06-10T12:44:52;9.50;;;3.92;;
43160;SDS011;40968;52.342;5.528;2023-06-10T12:47:21;7.75;;;3.65;;
43160;SDS011;40968;52.342;5.528;2023-06-10T12:49:57;10.48;;;4.18;;
43160;SDS011;40968;52.342;5.528;2023-06-10T12:52:24;12.68;;;3.90;;
43160;SDS011;40968;52.342;5.528;2023-06-10T12:54:51;10.80;;;4.05;;
43160;SDS011;40968;52.342;5.528;2023-06-10T12:57:19;16.70;;;4.35;;
43160;SDS011;40968;52.342;5.528;2023-06-10T12:59:45;14.88;;;4.53;;
43160;SDS011;40968;52.342;5.528;2023-06-10T13:02:17;10.85;;;3.80;;
43160;SDS011;40968;52.342;5.528;2023-06-10T13:04:46;7.55;;;3.50;;
43160;SDS011;40968;52.342;5.528;2023-06-10T13:07:12;9.20;;;3.75;;
43160;SDS011;40968;52.342;5.528;2023-06-10T13:09:39;6.50;;;3.53;;
43160;SDS011;40968;52.342;5.528;2023-06-10T13:12:06;8.40;;;3.60;;
43160;SDS011;40968;52.342;5.528;2023-06-10T13:14:34;10.80;;;4.07;;
43160;SDS011;40968;52.342;5.528;2023-06-10T13:17:02;10.68;;;4.03;;
43160;SDS011;40968;52.342;5.528;2023-06-10T13:19:30;13.60;;;3.85;;
43160;SDS011;40968;52.342;5.528;2023-06-10T13:21:58;8.95;;;3.70;;
43160;SDS011;40968;52.342;5.528;2023-06-10T13:24:25;9.93;;;3.65;;
43160;SDS011;40968;52.342;5.528;2023-06-10T13:26:52;10.32;;;3.80;;
43160;SDS011;40968;52.342;5.528;2023-06-10T13:29:19;12.55;;;4.10;;
43160;SDS011;40968;52.342;5.528;2023-06-10T13:31:46;9.13;;;3.78;;
43160;SDS011;40968;52.342;5.528;2023-06-10T13:34:13;10.25;;;3.80;;
43160;SDS011;40968;52.342;5.528;2023-06-10T13:36:39;16.23;;;5.00;;
43160;SDS011;40968;52.342;5.528;2023-06-10T13:39:07;8.68;;;3.78;;
43160;SDS011;40968;52.342;5.528;2023-06-10T13:41:34;9.05;;;3.80;;
43160;SDS011;40968;52.342;5.528;2023-06-10T13:44:00;9.10;;;3.67;;
43160;SDS011;40968;52.342;5.528;2023-06-10T13:46:27;8.27;;;3.50;;
43160;SDS011;40968;52.342;5.528;2023-06-10T13:48:53;7.30;;;3.42;;
43160;SDS011;40968;52.342;5.528;2023-06-10T13:51:20;6.78;;;3.83;;
43160;SDS011;40968;52.342;5.528;2023-06-10T13:53:47;9.48;;;3.80;;
43160;SDS011;40968;52.342;5.528;2023-06-10T13:56:15;8.88;;;3.45;;
43160;SDS011;40968;52.342;5.528;2023-06-10T13:58:41;7.60;;;3.58;;
43160;SDS011;40968;52.342;5.528;2023-06-10T14:01:08;12.32;;;3.80;;
43160;SDS011;40968;52.342;5.528;2023-06-10T14:03:35;8.48;;;3.63;;
43160;SDS011;40968;52.342;5.528;2023-06-10T14:06:01;12.15;;;3.90;;
43160;SDS011;40968;52.342;5.528;2023-06-10T14:08:29;14.48;;;4.00;;
43160;SDS011;40968;52.342;5.528;2023-06-10T14:10:55;12.50;;;3.70;;
43160;SDS011;40968;52.342;5.528;2023-06-10T14:13:23;10.90;;;3.50;;
43160;SDS011;40968;52.342;5.528;2023-06-10T14:15:50;8.13;;;3.70;;
43160;SDS011;40968;52.342;5.528;2023-06-10T14:18:17;8.48;;;3.40;;
43160;SDS011;40968;52.342;5.528;2023-06-10T14:20:44;14.65;;;3.78;;
43160;SDS011;40968;52.342;5.528;2023-06-10T14:23:10;8.65;;;3.95;;
43160;SDS011;40968;52.342;5.528;2023-06-10T14:25:37;10.77;;;3.88;;
43160;SDS011;40968;52.342;5.528;2023-06-10T14:28:04;11.00;;;3.80;;
43160;SDS011;40968;52.342;5.528;2023-06-10T14:30:32;9.00;;;3.55;;
43160;SDS011;40968;52.342;5.528;2023-06-10T14:32:58;11.40;;;4.03;;
43160;SDS011;40968;52.342;5.528;2023-06-10T14:35:25;8.75;;;3.55;;
43160;SDS011;40968;52.342;5.528;2023-06-10T14:37:51;9.95;;;4.13;;
43160;SDS011;40968;52.342;5.528;2023-06-10T14:40:18;13.27;;;4.10;;
43160;SDS011;40968;52.342;5.528;2023-06-10T14:42:46;8.07;;;3.60;;
43160;SDS011;40968;52.342;5.528;2023-06-10T14:45:13;7.85;;;3.38;;